sensor_id;sensor_type;location;lat;lon;timestamp;pressure;altitude;pressure_sealevel;temperature;humidity
23164;BME280;31429;42.674;23.350;2023-03-01T00:01:01;95263.75;;;7.94;100.00
23164;BME280;31429;42.674;23.350;2023-03-01T00:02:02;95251.72;;;8.00;100.00
23164;BME280;31429;42.674;23.350;2023-03-01T00:03:04;95261.28;;;7.89;100.00
23164;BME280;31429;42.674;23.350;2023-03-01T00:04:05;95254.16;;;7.64;100.00
23164;BME280;31429;42.674;23.350;2023-03-01T00:05:07;95243.25;;;8.01;100.00
23164;BME280;31429;42.674;23.350;2023-03-01T00:06:08;95252.47;;;8.07;100.00
23164;BME280;31429;42.674;23.350;2023-03-01T00:07:09;95257.38;;;8.15;100.00
23164;BME280;31429;42.674;23.350;2023-03-01T00:08:09;95248.69;;;8.25;100.00
23164;BME280;31429;42.674;23.350;2023-03-01T00:09:11;95251.69;;;8.45;100.00
23164;BME280;31429;42.674;23.350;2023-03-01T00:10:12;95247.19;;;8.16;100.00
23164;BME280;31429;42.674;23.350;2023-03-01T00:11:15;95248.91;;;8.55;100.00
23164;BME280;31429;42.674;23.350;2023-03-01T00:12:17;95251.56;;;8.51;100.00
23164;BME280;31429;42.674;23.350;2023-03-01T00:13:17;95243.94;;;8.51;100.00
23164;BME280;31429;42.674;23.350;2023-03-01T00:14:18;95249.00;;;8.09;100.00
23164;BME280;31429;42.674;23.350;2023-03-01T00:15:18;95249.63;;;7.79;100.00
23164;BME280;31429;42.674;23.350;2023-03-01T00:16:21;95241.53;;;8.02;100.00
23164;BME280;31429;42.674;23.350;2023-03-01T00:17:22;95247.28;;;8.12;100.00
23164;BME280;31429;42.674;23.350;2023-03-01T00:18:23;95247.06;;;8.21;100.00
23164;BME280;31429;42.674;23.350;2023-03-01T00:19:24;95241.59;;;8.40;100.00
23164;BME280;31429;42.674;23.350;2023-03-01T00:20:25;95246.13;;;8.28;100.00
23164;BME280;31429;42.674;23.350;2023-03-01T00:21:26;95238.69;;;8.17;100.00
23164;BME280;31429;42.674;23.350;2023-03-01T00:22:27;95235.53;;;8.04;100.00
23164;BME280;31429;42.674;23.350;2023-03-01T00:23:31;95238.94;;;8.03;100.00
23164;BME280;31429;42.674;23.350;2023-03-01T00:24:33;95250.06;;;7.99;100.00
23164;BME280;31429;42.674;23.350;2023-03-01T00:25:41;95228.44;;;8.20;100.00
23164;BME280;31429;42.674;23.350;2023-03-01T00:26:41;95222.09;;;7.98;100.00
23164;BME280;31429;42.674;23.350;2023-03-01T00:27:42;95224.31;;;8.13;100.00
23164;BME280;31429;42.674;23.350;2023-03-01T00:28:43;95212.94;;;7.89;100.00
23164;BME280;31429;42.674;23.350;2023-03-01T00:29:44;95218.78;;;7.94;100.00
23164;BME280;31429;42.674;23.350;2023-03-01T00:30:45;95226.38;;;7.97;100.00
23164;BME280;31429;42.674;23.350;2023-03-01T00:31:45;95214.00;;;7.79;100.00
23164;BME280;31429;42.674;23.350;2023-03-01T00:32:46;95215.91;;;7.68;100.00
23164;BME280;31429;42.674;23.350;2023-03-01T00:33:47;95218.66;;;7.58;100.00
23164;BME280;31429;42.674;23.350;2023-03-01T00:34:48;95218.91;;;7.88;100.00
23164;BME280;31429;42.674;23.350;2023-03-01T00:35:54;95216.13;;;7.99;100.00
23164;BME280;31429;42.674;23.350;2023-03-01T00:36:55;95213.03;;;8.25;100.00
23164;BME280;31429;42.674;23.350;2023-03-01T00:37:57;95219.19;;;7.73;100.00
23164;BME280;31429;42.674;23.350;2023-03-01T00:38:58;95216.56;;;7.78;100.00
23164;BME280;31429;42.674;23.350;2023-03-01T00:40:00;95213.03;;;7.85;100.00
23164;BME280;31429;42.674;23.350;2023-03-01T00:41:03;95208.25;;;8.09;100.00
23164;BME280;31429;42.674;23.350;2023-03-01T00:42:04;95203.19;;;8.09;100.00
23164;BME280;31429;42.674;23.350;2023-03-01T00:43:05;95207.63;;;8.41;100.00
23164;BME280;31429;42.674;23.350;2023-03-01T00:44:06;95208.94;;;8.19;100.00
23164;BME280;31429;42.674;23.350;2023-03-01T00:45:07;95207.53;;;8.44;100.00
23164;BME280;31429;42.674;23.350;2023-03-01T00:46:09;95206.63;;;8.47;100.00
23164;BME280;31429;42.674;23.350;2023-03-01T00:47:11;95206.88;;;8.36;100.00
23164;BME280;31429;42.674;23.350;2023-03-01T00:48:11;95208.13;;;8.16;100.00
23164;BME280;31429;42.674;23.350;2023-03-01T00:49:13;95207.03;;;8.29;100.00
23164;BME280;31429;42.674;23.350;2023-03-01T00:50:13;95212.25;;;8.21;100.00
23164;BME280;31429;42.674;23.350;2023-03-01T00:51:16;95215.38;;;8.37;100.00
23164;BME280;31429;42.674;23.350;2023-03-01T00:52:17;95207.03;;;9.02;100.00
23164;BME280;31429;42.674;23.350;2023-03-01T00:53:18;95212.84;;;8.72;100.00
23164;BME280;31429;42.674;23.350;2023-03-01T00:54:18;95217.41;;;8.58;100.00
23164;BME280;31429;42.674;23.350;2023-03-01T00:55:20;95215.13;;;8.83;100.00
23164;BME280;31429;42.674;23.350;2023-03-01T00:56:21;95212.19;;;8.64;100.00
23164;BME280;31429;42.674;23.350;2023-03-01T00:57:22;95209.44;;;8.36;100.00
23164;BME280;31429;42.674;23.350;2023-03-01T00:58:23;95206.09;;;8.33;100.00
23164;BME280;31429;42.674;23.350;2023-03-01T00:59:24;95210.75;;;8.14;100.00
23164;BME280;31429;42.674;23.350;2023-03-01T01:00:24;95204.81;;;8.14;100.00
23164;BME280;31429;42.674;23.350;2023-03-01T01:01:29;95209.97;;;8.09;100.00
23164;BME280;31429;42.674;23.350;2023-03-01T01:02:32;95203.63;;;8.30;100.00
23164;BME280;31429;42.674;23.350;2023-03-01T01:03:32;95206.81;;;8.39;100.00
23164;BME280;31429;42.674;23.350;2023-03-01T01:04:33;95211.75;;;8.05;100.00
23164;BME280;31429;42.674;23.350;2023-03-01T01:05:34;95207.97;;;8.23;100.00
23164;BME280;31429;42.674;23.350;2023-03-01T01:06:37;95210.75;;;8.54;100.00
23164;BME280;31429;42.674;23.350;2023-03-01T01:07:38;95209.84;;;8.55;100.00
23164;BME280;31429;42.674;23.350;2023-03-01T01:08:39;95220.06;;;8.14;100.00
23164;BME280;31429;42.674;23.350;2023-03-01T01:09:39;95222.19;;;7.93;100.00
23164;BME280;31429;42.674;23.350;2023-03-01T01:10:43;95209.34;;;7.99;100.00
23164;BME280;31429;42.674;23.350;2023-03-01T01:11:44;95216.44;;;8.24;100.00
23164;BME280;31429;42.674;23.350;2023-03-01T01:12:45;95210.81;;;8.09;100.00
23164;BME280;31429;42.674;23.350;2023-03-01T01:13:47;95218.56;;;8.05;100.00
23164;BME280;31429;42.674;23.350;2023-03-01T01:14:47;95202.91;;;8.61;100.00
23164;BME280;31429;42.674;23.350;2023-03-01T01:15:48;95208.25;;;8.51;100.00
23164;BME280;31429;42.674;23.350;2023-03-01T01:16:49;95209.81;;;8.92;100.00
23164;BME280;31429;42.674;23.350;2023-03-01T01:17:49;95212.94;;;9.03;100.00
23164;BME280;31429;42.674;23.350;2023-03-01T01:18:50;95209.91;;;8.52;100.00
23164;BME280;31429;42.674;23.350;2023-03-01T01:19:51;95213.00;;;8.28;100.00
23164;BME280;31429;42.674;23.350;2023-03-01T01:20:52;95210.09;;;8.44;100.00
23164;BME280;31429;42.674;23.350;2023-03-01T01:21:53;95205.84;;;8.80;100.00
23164;BME280;31429;42.674;23.350;2023-03-01T01:22:53;95205.13;;;8.38;100.00
23164;BME280;31429;42.674;23.350;2023-03-01T01:23:55;95171.59;;;8.18;100.00
23164;BME280;31429;42.674;23.350;2023-03-01T01:24:56;95211.47;;;8.19;100.00
23164;BME280;31429;42.674;23.350;2023-03-01T01:26:03;95205.19;;;8.74;100.00
23164;BME280;31429;42.674;23.350;2023-03-01T01:27:04;95214.09;;;8.16;100.00
23164;BME280;31429;42.674;23.350;2023-03-01T01:28:04;95213.84;;;7.87;100.00
23164;BME280;31429;42.674;23.350;2023-03-01T01:29:05;95214.97;;;7.74;100.00
23164;BME280;31429;42.674;23.350;2023-03-01T01:30:07;95205.69;;;7.70;100.00
23164;BME280;31429;42.674;23.350;2023-03-01T01:31:08;95207.00;;;8.30;100.00
23164;BME280;31429;42.674;23.350;2023-03-01T01:32:09;95207.50;;;8.46;100.00
23164;BME280;31429;42.674;23.350;2023-03-01T01:33:09;95200.69;;;8.48;100.00
23164;BME280;31429;42.674;23.350;2023-03-01T01:34:13;95209.16;;;8.85;100.00
23164;BME280;31429;42.674;23.350;2023-03-01T01:35:15;95206.19;;;8.66;100.00
23164;BME280;31429;42.674;23.350;2023-03-01T01:36:16;95210.94;;;8.45;100.00
23164;BME280;31429;42.674;23.350;2023-03-01T01:37:16;95212.97;;;8.66;100.00
23164;BME280;31429;42.674;23.350;2023-03-01T01:38:17;95215.66;;;8.60;100.00
23164;BME280;31429;42.674;23.350;2023-03-01T01:39:18;95214.94;;;8.55;100.00
23164;BME280;31429;42.674;23.350;2023-03-01T01:40:19;95213.16;;;8.58;100.00
23164;BME280;31429;42.674;23.350;2023-03-01T01:41:22;95231.63;;;8.30;100.00
23164;BME280;31429;42.674;23.350;2023-03-01T01:42:23;95227.59;;;8.20;100.00
23164;BME280;31429;42.674;23.350;2023-03-01T01:43:25;95230.28;;;8.12;100.00
23164;BME280;31429;42.674;23.350;2023-03-01T01:44:27;95232.38;;;7.93;100.00
23164;BME280;31429;42.674;23.350;2023-03-01T01:45:32;95229.28;;;7.78;100.00
23164;BME280;31429;42.674;23.350;2023-03-01T01:46:33;95233.84;;;8.03;100.00
23164;BME280;31429;42.674;23.350;2023-03-01T01:47:37;95230.50;;;7.60;100.00
23164;BME280;31429;42.674;23.350;2023-03-01T01:48:39;95235.47;;;7.66;100.00
23164;BME280;31429;42.674;23.350;2023-03-01T01:49:44;95224.66;;;8.39;100.00
23164;BME280;31429;42.674;23.350;2023-03-01T01:50:51;95207.28;;;8.55;100.00
23164;BME280;31429;42.674;23.350;2023-03-01T01:52:00;95226.81;;;8.15;100.00
23164;BME280;31429;42.674;23.350;2023-03-01T01:53:02;95224.53;;;8.45;100.00
23164;BME280;31429;42.674;23.350;2023-03-01T01:54:08;95219.19;;;8.56;100.00
23164;BME280;31429;42.674;23.350;2023-03-01T01:55:11;95225.69;;;8.29;100.00
23164;BME280;31429;42.674;23.350;2023-03-01T01:56:15;95218.34;;;7.74;100.00
23164;BME280;31429;42.674;23.350;2023-03-01T01:57:23;95219.66;;;7.93;100.00
23164;BME280;31429;42.674;23.350;2023-03-01T01:58:27;95218.13;;;7.83;100.00
23164;BME280;31429;42.674;23.350;2023-03-01T01:59:31;95217.91;;;7.95;100.00
23164;BME280;31429;42.674;23.350;2023-03-01T02:00:33;95219.75;;;7.89;100.00
23164;BME280;31429;42.674;23.350;2023-03-01T02:01:34;95209.69;;;7.81;100.00
23164;BME280;31429;42.674;23.350;2023-03-01T02:02:36;95210.00;;;8.07;100.00
23164;BME280;31429;42.674;23.350;2023-03-01T02:03:39;95207.09;;;8.26;100.00
23164;BME280;31429;42.674;23.350;2023-03-01T02:04:42;95202.75;;;8.31;100.00
23164;BME280;31429;42.674;23.350;2023-03-01T02:05:47;95211.41;;;8.21;100.00
23164;BME280;31429;42.674;23.350;2023-03-01T02:06:57;95209.91;;;8.12;100.00
23164;BME280;31429;42.674;23.350;2023-03-01T02:07:59;95210.19;;;8.00;100.00
23164;BME280;31429;42.674;23.350;2023-03-01T02:09:03;95202.56;;;8.40;100.00
23164;BME280;31429;42.674;23.350;2023-03-01T02:10:08;95201.72;;;7.99;100.00
23164;BME280;31429;42.674;23.350;2023-03-01T02:11:10;95193.84;;;8.10;100.00
23164;BME280;31429;42.674;23.350;2023-03-01T02:12:11;95202.72;;;7.91;100.00
23164;BME280;31429;42.674;23.350;2023-03-01T02:13:14;95194.03;;;8.41;100.00
23164;BME280;31429;42.674;23.350;2023-03-01T02:14:15;95187.03;;;8.50;100.00
23164;BME280;31429;42.674;23.350;2023-03-01T02:15:16;95199.09;;;8.42;100.00
23164;BME280;31429;42.674;23.350;2023-03-01T02:16:17;95201.09;;;7.87;100.00
23164;BME280;31429;42.674;23.350;2023-03-01T02:17:18;95196.63;;;8.39;100.00
23164;BME280;31429;42.674;23.350;2023-03-01T02:18:21;95189.13;;;8.70;100.00
23164;BME280;31429;42.674;23.350;2023-03-01T02:19:32;95193.59;;;8.21;100.00
23164;BME280;31429;42.674;23.350;2023-03-01T02:20:48;95195.41;;;8.16;100.00
23164;BME280;31429;42.674;23.350;2023-03-01T02:21:58;95205.31;;;8.31;100.00
23164;BME280;31429;42.674;23.350;2023-03-01T02:23:01;95202.06;;;8.21;100.00
23164;BME280;31429;42.674;23.350;2023-03-01T02:24:07;95196.44;;;8.07;100.00
23164;BME280;31429;42.674;23.350;2023-03-01T02:25:24;95181.47;;;7.92;100.00
23164;BME280;31429;42.674;23.350;2023-03-01T02:26:30;95194.28;;;7.89;100.00
23164;BME280;31429;42.674;23.350;2023-03-01T02:27:40;95191.06;;;8.59;100.00
23164;BME280;31429;42.674;23.350;2023-03-01T02:28:47;95196.50;;;8.44;100.00
23164;BME280;31429;42.674;23.350;2023-03-01T02:29:48;95195.84;;;8.36;100.00
23164;BME280;31429;42.674;23.350;2023-03-01T02:30:50;95194.63;;;8.12;100.00
23164;BME280;31429;42.674;23.350;2023-03-01T02:32:14;95195.53;;;8.11;100.00
23164;BME280;31429;42.674;23.350;2023-03-01T02:33:15;95204.56;;;7.84;100.00
23164;BME280;31429;42.674;23.350;2023-03-01T02:34:20;95198.88;;;8.13;100.00
23164;BME280;31429;42.674;23.350;2023-03-01T02:35:23;95202.06;;;8.61;100.00
23164;BME280;31429;42.674;23.350;2023-03-01T02:36:26;95196.72;;;8.35;100.00
23164;BME280;31429;42.674;23.350;2023-03-01T02:37:29;95210.50;;;8.23;100.00
23164;BME280;31429;42.674;23.350;2023-03-01T02:38:29;95207.94;;;8.64;100.00
23164;BME280;31429;42.674;23.350;2023-03-01T02:39:34;95209.31;;;8.41;100.00
23164;BME280;31429;42.674;23.350;2023-03-01T02:40:38;95211.84;;;8.42;100.00
23164;BME280;31429;42.674;23.350;2023-03-01T02:41:43;95215.44;;;8.34;100.00
23164;BME280;31429;42.674;23.350;2023-03-01T02:42:48;95213.28;;;8.54;100.00
23164;BME280;31429;42.674;23.350;2023-03-01T02:43:51;95210.41;;;8.29;100.00
23164;BME280;31429;42.674;23.350;2023-03-01T02:44:52;95211.34;;;7.85;100.00
23164;BME280;31429;42.674;23.350;2023-03-01T02:45:57;95206.69;;;7.63;100.00
23164;BME280;31429;42.674;23.350;2023-03-01T02:47:01;95205.22;;;7.94;100.00
23164;BME280;31429;42.674;23.350;2023-03-01T02:48:02;95198.44;;;7.93;100.00
23164;BME280;31429;42.674;23.350;2023-03-01T02:49:18;95199.34;;;7.47;100.00
23164;BME280;31429;42.674;23.350;2023-03-01T02:50:33;95202.28;;;7.71;100.00
23164;BME280;31429;42.674;23.350;2023-03-01T02:51:50;95209.19;;;7.64;100.00
23164;BME280;31429;42.674;23.350;2023-03-01T02:52:56;95203.75;;;7.81;100.00
23164;BME280;31429;42.674;23.350;2023-03-01T02:54:08;95207.50;;;7.65;100.00
23164;BME280;31429;42.674;23.350;2023-03-01T02:55:13;95199.56;;;7.80;100.00
23164;BME280;31429;42.674;23.350;2023-03-01T02:56:14;95187.38;;;8.35;100.00
23164;BME280;31429;42.674;23.350;2023-03-01T02:57:16;95197.22;;;8.10;100.00
23164;BME280;31429;42.674;23.350;2023-03-01T02:58:17;95198.16;;;8.06;100.00
23164;BME280;31429;42.674;23.350;2023-03-01T02:59:21;95192.06;;;7.72;100.00
23164;BME280;31429;42.674;23.350;2023-03-01T03:00:24;95195.94;;;7.90;100.00
23164;BME280;31429;42.674;23.350;2023-03-01T03:01:27;95205.28;;;7.89;100.00
23164;BME280;31429;42.674;23.350;2023-03-01T03:02:36;95202.31;;;8.10;100.00
23164;BME280;31429;42.674;23.350;2023-03-01T03:03:37;95208.44;;;8.00;100.00
23164;BME280;31429;42.674;23.350;2023-03-01T03:04:38;95197.75;;;8.25;100.00
23164;BME280;31429;42.674;23.350;2023-03-01T03:05:38;95198.00;;;8.14;100.00
23164;BME280;31429;42.674;23.350;2023-03-01T03:06:39;95201.03;;;7.91;100.00
23164;BME280;31429;42.674;23.350;2023-03-01T03:07:41;95200.53;;;7.74;100.00
23164;BME280;31429;42.674;23.350;2023-03-01T03:08:42;95203.34;;;8.00;100.00
23164;BME280;31429;42.674;23.350;2023-03-01T03:09:44;95196.28;;;8.15;100.00
23164;BME280;31429;42.674;23.350;2023-03-01T03:10:44;95205.03;;;8.03;100.00
23164;BME280;31429;42.674;23.350;2023-03-01T03:11:46;95192.19;;;8.07;100.00
23164;BME280;31429;42.674;23.350;2023-03-01T03:12:49;95194.47;;;7.80;100.00
23164;BME280;31429;42.674;23.350;2023-03-01T03:13:51;95208.75;;;7.87;100.00
23164;BME280;31429;42.674;23.350;2023-03-01T03:14:53;95205.91;;;8.00;100.00
23164;BME280;31429;42.674;23.350;2023-03-01T03:15:55;95207.31;;;8.15;100.00
23164;BME280;31429;42.674;23.350;2023-03-01T03:16:56;95197.97;;;8.16;100.00
23164;BME280;31429;42.674;23.350;2023-03-01T03:17:57;95205.66;;;8.14;100.00
23164;BME280;31429;42.674;23.350;2023-03-01T03:18:58;95206.44;;;8.16;100.00
23164;BME280;31429;42.674;23.350;2023-03-01T03:20:06;95207.38;;;8.12;100.00
23164;BME280;31429;42.674;23.350;2023-03-01T03:21:12;95204.63;;;8.21;100.00
23164;BME280;31429;42.674;23.350;2023-03-01T03:22:13;95203.34;;;8.02;100.00
23164;BME280;31429;42.674;23.350;2023-03-01T03:23:14;95208.28;;;7.67;100.00
23164;BME280;31429;42.674;23.350;2023-03-01T03:24:14;95212.63;;;7.62;100.00
23164;BME280;31429;42.674;23.350;2023-03-01T03:25:15;95214.50;;;7.52;100.00
23164;BME280;31429;42.674;23.350;2023-03-01T03:26:16;95207.53;;;7.63;100.00
23164;BME280;31429;42.674;23.350;2023-03-01T03:27:17;95207.53;;;7.63;100.00
23164;BME280;31429;42.674;23.350;2023-03-01T03:28:18;95207.94;;;7.85;100.00
23164;BME280;31429;42.674;23.350;2023-03-01T03:29:18;95204.09;;;7.66;100.00
23164;BME280;31429;42.674;23.350;2023-03-01T03:30:20;95206.38;;;7.78;100.00
23164;BME280;31429;42.674;23.350;2023-03-01T03:31:22;95212.81;;;7.52;100.00
23164;BME280;31429;42.674;23.350;2023-03-01T03:32:22;95202.38;;;7.66;100.00
23164;BME280;31429;42.674;23.350;2023-03-01T03:33:23;95211.84;;;7.58;100.00
23164;BME280;31429;42.674;23.350;2023-03-01T03:34:24;95201.44;;;7.70;100.00
23164;BME280;31429;42.674;23.350;2023-03-01T03:35:27;95215.72;;;7.34;100.00
23164;BME280;31429;42.674;23.350;2023-03-01T03:36:30;95198.84;;;7.73;100.00
23164;BME280;31429;42.674;23.350;2023-03-01T03:37:30;95219.53;;;7.55;100.00
23164;BME280;31429;42.674;23.350;2023-03-01T03:38:50;95208.25;;;8.09;100.00
23164;BME280;31429;42.674;23.350;2023-03-01T03:39:50;95214.19;;;8.12;100.00
23164;BME280;31429;42.674;23.350;2023-03-01T03:41:00;95209.16;;;8.07;100.00
23164;BME280;31429;42.674;23.350;2023-03-01T03:42:02;95206.38;;;8.19;100.00
23164;BME280;31429;42.674;23.350;2023-03-01T03:43:05;95199.91;;;8.04;100.00
23164;BME280;31429;42.674;23.350;2023-03-01T03:44:06;95218.81;;;7.93;100.00
23164;BME280;31429;42.674;23.350;2023-03-01T03:45:07;95216.09;;;8.00;100.00
23164;BME280;31429;42.674;23.350;2023-03-01T03:46:10;95223.03;;;7.94;100.00
23164;BME280;31429;42.674;23.350;2023-03-01T03:47:11;95219.41;;;8.05;100.00
23164;BME280;31429;42.674;23.350;2023-03-01T03:48:12;95219.13;;;8.18;100.00
23164;BME280;31429;42.674;23.350;2023-03-01T03:49:12;95224.63;;;7.99;100.00
23164;BME280;31429;42.674;23.350;2023-03-01T03:50:15;95217.31;;;7.83;100.00
23164;BME280;31429;42.674;23.350;2023-03-01T03:51:18;95218.13;;;7.85;100.00
23164;BME280;31429;42.674;23.350;2023-03-01T03:52:19;95221.88;;;8.08;100.00
23164;BME280;31429;42.674;23.350;2023-03-01T03:53:20;95215.09;;;8.07;100.00
23164;BME280;31429;42.674;23.350;2023-03-01T03:54:21;95220.88;;;8.17;100.00
23164;BME280;31429;42.674;23.350;2023-03-01T03:55:22;95222.50;;;8.59;100.00
23164;BME280;31429;42.674;23.350;2023-03-01T03:56:23;95219.94;;;8.20;100.00
23164;BME280;31429;42.674;23.350;2023-03-01T03:57:26;95219.81;;;8.26;100.00
23164;BME280;31429;42.674;23.350;2023-03-01T03:58:26;95222.84;;;8.44;100.00
23164;BME280;31429;42.674;23.350;2023-03-01T03:59:27;95224.09;;;8.24;100.00
23164;BME280;31429;42.674;23.350;2023-03-01T04:00:28;95223.09;;;8.32;100.00
23164;BME280;31429;42.674;23.350;2023-03-01T04:01:30;95215.16;;;8.04;100.00
23164;BME280;31429;42.674;23.350;2023-03-01T04:02:31;95212.31;;;7.78;100.00
23164;BME280;31429;42.674;23.350;2023-03-01T04:03:32;95223.94;;;7.91;100.00
23164;BME280;31429;42.674;23.350;2023-03-01T04:04:33;95227.41;;;7.87;100.00
23164;BME280;31429;42.674;23.350;2023-03-01T04:05:34;95223.16;;;7.86;100.00
23164;BME280;31429;42.674;23.350;2023-03-01T04:06:35;95226.88;;;7.72;100.00
23164;BME280;31429;42.674;23.350;2023-03-01T04:07:36;95231.00;;;7.77;100.00
23164;BME280;31429;42.674;23.350;2023-03-01T04:08:38;95231.13;;;7.71;100.00
23164;BME280;31429;42.674;23.350;2023-03-01T04:09:38;95229.44;;;7.72;100.00
23164;BME280;31429;42.674;23.350;2023-03-01T04:10:42;95226.22;;;7.61;100.00
23164;BME280;31429;42.674;23.350;2023-03-01T04:11:43;95227.63;;;7.75;100.00
23164;BME280;31429;42.674;23.350;2023-03-01T04:12:43;95232.06;;;7.20;100.00
23164;BME280;31429;42.674;23.350;2023-03-01T04:13:44;95230.38;;;7.20;100.00
23164;BME280;31429;42.674;23.350;2023-03-01T04:14:45;95230.19;;;6.80;100.00
23164;BME280;31429;42.674;23.350;2023-03-01T04:15:45;95240.84;;;7.02;100.00
23164;BME280;31429;42.674;23.350;2023-03-01T04:16:47;95230.91;;;6.88;100.00
23164;BME280;31429;42.674;23.350;2023-03-01T04:17:48;95230.72;;;7.01;100.00
23164;BME280;31429;42.674;23.350;2023-03-01T04:18:49;95226.59;;;7.41;100.00
23164;BME280;31429;42.674;23.350;2023-03-01T04:19:49;95227.41;;;7.43;100.00
23164;BME280;31429;42.674;23.350;2023-03-01T04:20:50;95230.72;;;7.48;100.00
23164;BME280;31429;42.674;23.350;2023-03-01T04:21:52;95232.31;;;7.53;100.00
23164;BME280;31429;42.674;23.350;2023-03-01T04:22:57;95222.59;;;7.72;100.00
23164;BME280;31429;42.674;23.350;2023-03-01T04:23:57;95215.28;;;7.98;100.00
23164;BME280;31429;42.674;23.350;2023-03-01T04:24:58;95222.75;;;7.66;100.00
23164;BME280;31429;42.674;23.350;2023-03-01T04:26:02;95224.19;;;7.33;100.00
23164;BME280;31429;42.674;23.350;2023-03-01T04:27:03;95217.66;;;7.65;100.00
23164;BME280;31429;42.674;23.350;2023-03-01T04:28:03;95218.06;;;7.88;100.00
23164;BME280;31429;42.674;23.350;2023-03-01T04:29:04;95219.31;;;7.69;100.00
23164;BME280;31429;42.674;23.350;2023-03-01T04:30:06;95228.19;;;7.46;100.00
23164;BME280;31429;42.674;23.350;2023-03-01T04:31:09;95231.91;;;7.29;100.00
23164;BME280;31429;42.674;23.350;2023-03-01T04:32:14;95227.31;;;7.49;100.00
23164;BME280;31429;42.674;23.350;2023-03-01T04:33:16;95223.75;;;7.58;100.00
23164;BME280;31429;42.674;23.350;2023-03-01T04:34:17;95220.09;;;7.71;100.00
23164;BME280;31429;42.674;23.350;2023-03-01T04:35:18;95213.41;;;8.06;100.00
23164;BME280;31429;42.674;23.350;2023-03-01T04:36:20;95211.97;;;7.95;100.00
23164;BME280;31429;42.674;23.350;2023-03-01T04:37:21;95227.31;;;7.49;100.00
23164;BME280;31429;42.674;23.350;2023-03-01T04:38:22;95219.69;;;7.47;100.00
23164;BME280;31429;42.674;23.350;2023-03-01T04:39:22;95218.81;;;7.93;100.00
23164;BME280;31429;42.674;23.350;2023-03-01T04:40:23;95204.94;;;8.06;100.00
23164;BME280;31429;42.674;23.350;2023-03-01T04:41:24;95208.78;;;7.85;100.00
23164;BME280;31429;42.674;23.350;2023-03-01T04:42:25;95208.22;;;8.13;100.00
23164;BME280;31429;42.674;23.350;2023-03-01T04:43:26;95217.72;;;7.62;100.00
23164;BME280;31429;42.674;23.350;2023-03-01T04:44:26;95214.41;;;7.12;100.00
23164;BME280;31429;42.674;23.350;2023-03-01T04:45:27;95220.53;;;7.01;100.00
23164;BME280;31429;42.674;23.350;2023-03-01T04:46:28;95207.22;;;7.78;100.00
23164;BME280;31429;42.674;23.350;2023-03-01T04:47:30;95215.41;;;7.49;100.00
23164;BME280;31429;42.674;23.350;2023-03-01T04:48:31;95210.19;;;7.57;100.00
23164;BME280;31429;42.674;23.350;2023-03-01T04:49:32;95212.25;;;7.37;100.00
23164;BME280;31429;42.674;23.350;2023-03-01T04:50:32;95225.25;;;7.22;100.00
23164;BME280;31429;42.674;23.350;2023-03-01T04:51:33;95217.56;;;7.25;100.00
23164;BME280;31429;42.674;23.350;2023-03-01T04:52:34;95201.44;;;7.72;100.00
23164;BME280;31429;42.674;23.350;2023-03-01T04:53:35;95173.81;;;7.93;100.00
23164;BME280;31429;42.674;23.350;2023-03-01T04:54:38;95201.09;;;8.66;100.00
23164;BME280;31429;42.674;23.350;2023-03-01T04:55:39;95202.56;;;8.00;100.00
23164;BME280;31429;42.674;23.350;2023-03-01T04:56:40;95202.06;;;7.83;100.00
23164;BME280;31429;42.674;23.350;2023-03-01T04:57:44;95204.47;;;8.29;100.00
23164;BME280;31429;42.674;23.350;2023-03-01T04:58:45;95199.53;;;8.23;100.00
23164;BME280;31429;42.674;23.350;2023-03-01T04:59:45;95206.81;;;7.57;100.00
23164;BME280;31429;42.674;23.350;2023-03-01T05:00:46;95217.16;;;7.47;100.00
23164;BME280;31429;42.674;23.350;2023-03-01T05:01:46;95205.41;;;7.83;100.00
23164;BME280;31429;42.674;23.350;2023-03-01T05:02:51;95205.78;;;7.65;100.00
23164;BME280;31429;42.674;23.350;2023-03-01T05:03:55;95208.13;;;7.30;100.00
23164;BME280;31429;42.674;23.350;2023-03-01T05:04:55;95213.66;;;7.53;100.00
23164;BME280;31429;42.674;23.350;2023-03-01T05:05:58;95208.69;;;7.00;100.00
23164;BME280;31429;42.674;23.350;2023-03-01T05:07:00;95218.41;;;7.25;100.00
23164;BME280;31429;42.674;23.350;2023-03-01T05:08:02;95220.41;;;7.08;100.00
23164;BME280;31429;42.674;23.350;2023-03-01T05:09:05;95206.13;;;7.48;100.00
23164;BME280;31429;42.674;23.350;2023-03-01T05:10:09;95211.13;;;8.36;100.00
23164;BME280;31429;42.674;23.350;2023-03-01T05:11:11;95211.91;;;8.39;100.00
23164;BME280;31429;42.674;23.350;2023-03-01T05:12:12;95207.09;;;8.24;100.00
23164;BME280;31429;42.674;23.350;2023-03-01T05:13:13;95203.41;;;7.56;100.00
23164;BME280;31429;42.674;23.350;2023-03-01T05:14:15;95203.41;;;7.56;100.00
23164;BME280;31429;42.674;23.350;2023-03-01T05:15:16;95201.09;;;7.88;100.00
23164;BME280;31429;42.674;23.350;2023-03-01T05:16:16;95221.28;;;7.53;100.00
23164;BME280;31429;42.674;23.350;2023-03-01T05:17:18;95223.88;;;7.03;100.00
23164;BME280;31429;42.674;23.350;2023-03-01T05:18:20;95217.59;;;7.23;100.00
23164;BME280;31429;42.674;23.350;2023-03-01T05:19:21;95217.47;;;7.29;100.00
23164;BME280;31429;42.674;23.350;2023-03-01T05:20:22;95215.00;;;7.71;100.00
23164;BME280;31429;42.674;23.350;2023-03-01T05:21:23;95226.97;;;7.20;100.00
23164;BME280;31429;42.674;23.350;2023-03-01T05:22:24;95215.03;;;7.69;100.00
23164;BME280;31429;42.674;23.350;2023-03-01T05:23:25;95216.03;;;7.62;100.00
23164;BME280;31429;42.674;23.350;2023-03-01T05:24:26;95217.03;;;7.53;100.00
23164;BME280;31429;42.674;23.350;2023-03-01T05:25:27;95220.44;;;7.54;100.00
23164;BME280;31429;42.674;23.350;2023-03-01T05:26:33;95211.91;;;7.57;100.00